createdAt,value
2018-08-09T00:02:05.649Z,23.25
2018-08-09T00:04:34.772Z,23.20
2018-08-09T00:07:04.149Z,22.88
2018-08-09T00:09:33.926Z,22.86
2018-08-09T00:12:03.677Z,22.91
2018-08-09T00:14:32.883Z,22.98
2018-08-09T00:17:02.046Z,23.04
2018-08-09T00:19:30.947Z,23.00
2018-08-09T00:22:00.160Z,22.95
2018-08-09T00:24:29.847Z,22.93
2018-08-09T00:26:59.166Z,23.01
2018-08-09T00:29:28.194Z,22.97
2018-08-09T00:31:57.599Z,22.93
2018-08-09T00:34:27.078Z,22.96
2018-08-09T00:36:56.719Z,22.96
2018-08-09T00:39:26.455Z,22.93
2018-08-09T00:41:55.604Z,22.96
2018-08-09T00:44:24.709Z,23.01
2018-08-09T00:46:53.924Z,22.92
2018-08-09T00:49:23.094Z,23.04
2018-08-09T00:51:52.121Z,23.14
2018-08-09T00:54:21.726Z,23.24
2018-08-09T00:56:51.316Z,23.29
2018-08-09T00:59:20.476Z,23.29
2018-08-09T01:01:49.544Z,23.36
2018-08-09T01:04:19.679Z,23.43
2018-08-09T01:06:50.204Z,23.38
2018-08-09T01:09:19.554Z,23.50
2018-08-09T01:11:49.062Z,23.53
2018-08-09T01:14:18.183Z,23.50
2018-08-09T01:16:47.287Z,23.45
2018-08-09T01:19:16.516Z,23.38
2018-08-09T01:21:45.727Z,23.45
2018-08-09T01:24:15.670Z,23.22
2018-08-09T01:26:48.870Z,23.12
2018-08-09T01:29:19.032Z,23.08
2018-08-09T01:31:49.006Z,23.07
2018-08-09T01:34:18.650Z,23.19
2018-08-09T01:36:47.655Z,23.22
2018-08-09T01:39:16.654Z,23.15
2018-08-09T01:41:56.561Z,23.20
2018-08-09T01:44:25.882Z,23.18
2018-08-09T01:46:54.883Z,23.16
2018-08-09T01:49:24.031Z,23.24
2018-08-09T01:51:53.075Z,23.29
2018-08-09T01:54:22.130Z,23.33
2018-08-09T01:56:51.150Z,23.25
2018-08-09T01:59:20.398Z,23.28
2018-08-09T02:01:49.397Z,23.31
2018-08-09T02:04:18.456Z,23.33
2018-08-09T02:06:47.601Z,23.31
2018-08-09T02:09:21.782Z,23.21
2018-08-09T02:11:50.948Z,23.25
2018-08-09T02:14:20.024Z,23.21
2018-08-09T02:16:49.144Z,23.14
2018-08-09T02:19:19.505Z,23.00
2018-08-09T02:21:49.470Z,22.92
2018-08-09T02:24:18.581Z,22.94
2018-08-09T02:26:47.735Z,22.95
2018-08-09T02:29:16.914Z,22.97
2018-08-09T02:31:45.904Z,22.98
2018-08-09T02:34:15.206Z,22.94
2018-08-09T02:36:44.333Z,22.87
2018-08-09T02:39:13.325Z,22.82
2018-08-09T02:41:42.948Z,22.77
2018-08-09T02:44:11.927Z,22.83
2018-08-09T02:46:41.091Z,22.78
2018-08-09T02:49:11.018Z,22.72
2018-08-09T02:51:40.052Z,22.71
2018-08-09T02:54:09.207Z,22.71
2018-08-09T02:56:38.182Z,22.71
2018-08-09T02:59:07.071Z,22.76
2018-08-09T03:01:36.027Z,22.77
2018-08-09T03:04:05.432Z,22.74
2018-08-09T03:06:34.353Z,22.77
2018-08-09T03:09:03.705Z,22.76
2018-08-09T03:11:33.325Z,22.80
2018-08-09T03:14:02.247Z,22.82
2018-08-09T03:16:31.247Z,22.81
2018-08-09T03:19:00.407Z,22.79
2018-08-09T03:21:29.268Z,22.81
2018-08-09T03:23:58.419Z,22.85
2018-08-09T03:26:27.883Z,22.83
2018-08-09T03:28:56.806Z,22.82
2018-08-09T03:31:25.813Z,22.80
2018-08-09T03:33:55.169Z,22.77
2018-08-09T03:36:24.034Z,22.72
2018-08-09T03:38:53.034Z,22.73
2018-08-09T03:41:22.555Z,22.71
2018-08-09T03:43:51.565Z,22.62
2018-08-09T03:46:20.643Z,22.64
2018-08-09T03:48:49.956Z,22.60
2018-08-09T03:51:18.984Z,22.64
2018-08-09T03:53:48.003Z,22.60
2018-08-09T03:56:17.423Z,22.65
2018-08-09T03:58:46.336Z,22.67
2018-08-09T04:01:15.323Z,22.62
2018-08-09T04:03:45.422Z,22.66
2018-08-09T04:06:14.513Z,22.84
2018-08-09T04:08:43.647Z,22.86
2018-08-09T04:11:13.033Z,22.87
2018-08-09T04:13:42.240Z,22.93
2018-08-09T04:16:11.255Z,22.94
2018-08-09T04:18:41.926Z,23.05
2018-08-09T04:21:10.784Z,23.25
2018-08-09T04:23:39.678Z,23.35
2018-08-09T04:26:08.722Z,23.50
2018-08-09T04:28:37.747Z,23.65
2018-08-09T04:31:06.796Z,23.83
2018-08-09T04:33:35.864Z,24.02
2018-08-09T04:36:04.791Z,24.10
2018-08-09T04:38:33.959Z,24.28
2018-08-09T04:41:03.524Z,24.45
2018-08-09T04:43:32.414Z,24.55
2018-08-09T04:46:01.497Z,24.73
2018-08-09T04:48:31.048Z,24.89
2018-08-09T04:51:00.025Z,25.16
2018-08-09T04:53:29.062Z,25.27
2018-08-09T04:55:58.513Z,25.54
2018-08-09T04:58:27.466Z,25.46
2018-08-09T05:00:56.497Z,25.37
2018-08-09T05:03:25.819Z,25.25
2018-08-09T05:05:55.686Z,25.15
2018-08-09T05:08:24.581Z,25.26
2018-08-09T05:10:54.215Z,25.50
2018-08-09T05:13:23.452Z,25.67
2018-08-09T05:15:52.636Z,25.68
2018-08-09T05:18:22.395Z,25.53
2018-08-09T05:20:51.284Z,25.35
2018-08-09T05:23:21.368Z,25.24
2018-08-09T05:25:51.110Z,25.09
2018-08-09T05:28:19.980Z,25.07
2018-08-09T05:30:49.017Z,25.01
2018-08-09T05:33:18.386Z,25.00
2018-08-09T05:35:48.555Z,24.98
2018-08-09T05:38:17.608Z,25.00
2018-08-09T05:40:46.849Z,25.06
2018-08-09T05:43:15.875Z,25.27
2018-08-09T05:45:44.984Z,25.34
2018-08-09T05:48:14.363Z,25.63
2018-08-09T05:50:43.306Z,25.91
2018-08-09T05:53:12.196Z,25.94
2018-08-09T05:55:41.346Z,26.00
2018-08-09T05:58:10.233Z,26.21
2018-08-09T06:00:39.348Z,26.56
2018-08-09T06:03:08.299Z,26.71
2018-08-09T06:05:37.388Z,26.77
2018-08-09T06:08:06.320Z,26.75
2018-08-09T06:10:35.601Z,26.70
2018-08-09T06:13:04.484Z,26.70
2018-08-09T06:15:33.454Z,26.70
2018-08-09T06:18:02.781Z,26.71
2018-08-09T06:20:31.752Z,26.72
2018-08-09T06:23:00.667Z,26.66
2018-08-09T06:25:30.343Z,26.67
2018-08-09T06:27:59.382Z,26.61
2018-08-09T06:30:28.375Z,26.63
2018-08-09T06:32:57.369Z,26.55
2018-08-09T06:35:26.433Z,26.66
2018-08-09T06:37:55.522Z,26.44
2018-08-09T06:40:24.929Z,26.48
2018-08-09T06:42:53.868Z,26.70
2018-08-09T06:45:22.785Z,26.73
2018-08-09T06:47:51.863Z,26.66
2018-08-09T06:50:20.749Z,26.81
2018-08-09T06:52:49.719Z,26.87
2018-08-09T06:55:19.113Z,26.69
2018-08-09T06:57:48.117Z,26.77
2018-08-09T07:00:17.053Z,26.87
2018-08-09T07:02:46.556Z,26.91
2018-08-09T07:05:15.419Z,26.78
2018-08-09T07:07:44.402Z,26.81
2018-08-09T07:10:13.856Z,26.79
2018-08-09T07:12:42.805Z,26.96
2018-08-09T07:15:13.180Z,27.02
2018-08-09T07:17:42.255Z,26.87
2018-08-09T07:20:11.519Z,27.17
2018-08-09T07:22:41.587Z,27.28
2018-08-09T07:25:10.619Z,27.36
2018-08-09T07:27:39.635Z,27.17
2018-08-09T07:30:10.861Z,27.41
2018-08-09T07:32:40.222Z,27.51
2018-08-09T07:35:10.082Z,27.58
2018-08-09T07:37:39.855Z,27.70
2018-08-09T07:40:10.860Z,27.48
2018-08-09T07:42:40.026Z,27.78
2018-08-09T07:45:11.479Z,27.85
2018-08-09T07:47:40.433Z,27.86
2018-08-09T07:50:09.946Z,28.01
2018-08-09T07:52:39.322Z,28.01
2018-08-09T07:55:09.933Z,28.05
2018-08-09T07:57:39.332Z,27.90
2018-08-09T08:00:10.994Z,28.07
2018-08-09T08:02:39.978Z,28.14
2018-08-09T08:05:09.263Z,28.31
2018-08-09T08:07:38.671Z,28.45
2018-08-09T08:10:09.803Z,28.43
2018-08-09T08:12:38.871Z,28.59
2018-08-09T08:15:09.032Z,28.59
2018-08-09T08:17:38.996Z,28.52
2018-08-09T08:20:08.692Z,28.64
2018-08-09T08:22:37.719Z,28.65
2018-08-09T08:25:07.388Z,28.76
2018-08-09T08:27:36.234Z,28.96
2018-08-09T08:30:09.164Z,29.17
2018-08-09T08:35:24.331Z,29.01
2018-08-09T08:37:53.284Z,29.28
2018-08-09T08:40:22.207Z,29.15
2018-08-09T08:42:51.316Z,29.48
2018-08-09T08:45:20.342Z,29.80
2018-08-09T08:47:49.217Z,30.18
2018-08-09T08:50:18.745Z,30.55
2018-08-09T08:52:47.695Z,30.71
2018-08-09T08:55:16.630Z,30.88
2018-08-09T08:57:45.509Z,31.20
2018-08-09T09:00:14.439Z,31.51
2018-08-09T09:02:43.335Z,31.63
2018-08-09T09:05:13.810Z,31.66
2018-08-09T09:07:42.841Z,31.56
2018-08-09T09:10:13.913Z,30.31
2018-08-09T09:12:43.070Z,30.51
2018-08-09T09:15:14.347Z,30.67
2018-08-09T09:17:44.048Z,30.71
2018-08-09T09:20:16.186Z,30.74
2018-08-09T09:22:45.284Z,30.44
2018-08-09T09:25:14.460Z,30.45
2018-08-09T09:27:43.904Z,30.68
2018-08-09T09:30:14.370Z,30.52
2018-08-09T09:32:43.469Z,30.39
2018-08-09T09:35:12.317Z,30.66
2018-08-09T09:37:41.799Z,30.64
2018-08-09T09:40:11.616Z,30.89
2018-08-09T09:42:40.499Z,31.01
2018-08-09T09:45:10.322Z,31.17
2018-08-09T09:47:39.443Z,31.37
2018-08-09T09:50:10.417Z,31.08
2018-08-09T09:52:39.457Z,31.29
2018-08-09T09:55:08.360Z,31.06
2018-08-09T09:57:37.747Z,30.61
2018-08-09T10:00:12.402Z,30.91
2018-08-09T10:02:41.336Z,31.30
2018-08-09T10:05:10.384Z,30.85
2018-08-09T10:07:39.283Z,30.73
2018-08-09T10:10:08.310Z,31.28
2018-08-09T10:12:37.322Z,31.19
2018-08-09T10:15:06.429Z,31.50
2018-08-09T10:17:35.535Z,31.97
2018-08-09T10:20:04.558Z,31.78
2018-08-09T10:22:33.488Z,31.97
2018-08-09T10:25:02.436Z,31.82
2018-08-09T10:27:31.367Z,31.21
2018-08-09T10:30:00.699Z,30.65
2018-08-09T10:32:29.606Z,30.77
2018-08-09T10:34:58.587Z,30.96
2018-08-09T10:37:27.531Z,31.34
2018-08-09T10:39:56.440Z,30.86
2018-08-09T10:42:25.309Z,31.53
2018-08-09T10:44:54.258Z,31.77
2018-08-09T10:47:23.154Z,32.23
2018-08-09T10:49:52.010Z,32.13
2018-08-09T10:52:21.358Z,31.66
2018-08-09T10:54:50.274Z,31.30
2018-08-09T10:57:19.362Z,31.65
2018-08-09T10:59:48.951Z,31.43
2018-08-09T11:02:17.819Z,31.12
2018-08-09T11:04:46.757Z,31.63
2018-08-09T11:07:15.741Z,31.61
2018-08-09T11:09:44.633Z,32.18
2018-08-09T11:12:13.506Z,32.80
2018-08-09T11:14:42.872Z,32.96
2018-08-09T11:17:11.856Z,33.25
2018-08-09T11:19:40.722Z,33.04
2018-08-09T11:22:09.923Z,32.77
2018-08-09T11:24:38.932Z,33.05
2018-08-09T11:27:07.695Z,33.23
2018-08-09T11:29:37.014Z,33.34
2018-08-09T11:32:06.532Z,33.51
2018-08-09T11:34:35.499Z,33.48
2018-08-09T11:37:05.108Z,32.87
2018-08-09T11:39:34.084Z,32.48
2018-08-09T11:42:03.035Z,32.51
2018-08-09T11:44:32.400Z,31.78
2018-08-09T11:47:01.310Z,32.23
2018-08-09T11:49:30.359Z,32.59
2018-08-09T11:51:59.406Z,32.60
2018-08-09T11:54:28.323Z,32.53
2018-08-09T11:56:57.383Z,32.54
2018-08-09T11:59:27.239Z,32.05
2018-08-09T12:01:56.165Z,31.42
2018-08-09T12:04:25.188Z,31.62
2018-08-09T12:06:54.150Z,31.94
2018-08-09T12:09:23.032Z,32.12
2018-08-09T12:11:51.949Z,32.10
2018-08-09T12:14:21.288Z,32.18
2018-08-09T12:16:50.300Z,32.19
2018-08-09T12:19:19.211Z,32.27
2018-08-09T12:21:48.288Z,32.02
2018-08-09T12:24:17.194Z,31.86
2018-08-09T12:26:46.183Z,31.77
2018-08-09T12:29:15.645Z,31.97
2018-08-09T12:31:44.648Z,31.63
2018-08-09T12:34:13.572Z,31.44
2018-08-09T12:36:42.976Z,31.87
2018-08-09T12:39:13.181Z,32.17
2018-08-09T12:41:42.747Z,32.35
2018-08-09T12:44:11.908Z,32.14
2018-08-09T12:46:40.921Z,32.16
2018-08-09T12:49:10.246Z,32.19
2018-08-09T12:51:39.294Z,32.19
2018-08-09T12:54:08.335Z,31.72
2018-08-09T12:56:37.730Z,31.69
2018-08-09T12:59:06.695Z,31.61
2018-08-09T13:01:35.584Z,31.88
2018-08-09T13:04:05.018Z,32.16
2018-08-09T13:06:34.046Z,32.34
2018-08-09T13:09:02.985Z,32.20
2018-08-09T13:11:31.926Z,32.36
2018-08-09T13:14:00.804Z,32.51
2018-08-09T13:16:29.752Z,32.34
2018-08-09T13:18:58.724Z,32.51
2018-08-09T13:21:27.574Z,32.50
2018-08-09T13:23:56.554Z,32.49
2018-08-09T13:26:26.075Z,32.50
2018-08-09T13:28:55.084Z,32.58
2018-08-09T13:31:24.079Z,32.66
2018-08-09T13:33:53.216Z,32.70
2018-08-09T13:36:22.179Z,32.61
2018-08-09T13:38:51.170Z,32.72
2018-08-09T13:41:20.391Z,32.83
2018-08-09T13:43:49.528Z,32.87
2018-08-09T13:46:18.686Z,32.91
2018-08-09T13:48:48.096Z,32.73
2018-08-09T13:51:17.124Z,32.79
2018-08-09T13:53:46.025Z,32.71
2018-08-09T13:56:15.550Z,32.79
2018-08-09T13:58:44.712Z,32.90
2018-08-09T14:01:13.932Z,32.93
2018-08-09T14:03:42.933Z,32.76
2018-08-09T14:06:11.940Z,32.81
2018-08-09T14:08:40.888Z,32.74
2018-08-09T14:11:10.285Z,32.67
2018-08-09T14:13:39.401Z,32.68
2018-08-09T14:16:09.010Z,32.71
2018-08-09T14:18:38.166Z,32.61
2018-08-09T14:21:07.137Z,32.70
2018-08-09T14:23:35.996Z,32.32
2018-08-09T14:26:04.922Z,32.31
2018-08-09T14:28:33.880Z,32.35
2018-08-09T14:31:02.736Z,32.54
2018-08-09T14:33:31.694Z,32.66
2018-08-09T14:36:00.506Z,32.64
2018-08-09T14:38:29.378Z,32.72
2018-08-09T14:40:58.253Z,32.79
2018-08-09T14:43:27.090Z,32.78
2018-08-09T14:45:55.960Z,32.74
2018-08-09T14:48:25.266Z,32.26
2018-08-09T14:50:54.193Z,32.03
2018-08-09T14:53:23.023Z,32.29
2018-08-09T14:55:51.924Z,32.42
2018-08-09T14:58:20.832Z,32.55
2018-08-09T15:00:49.670Z,32.62
2018-08-09T15:03:18.541Z,32.71
2018-08-09T15:05:47.401Z,32.71
2018-08-09T15:08:16.239Z,32.69
2018-08-09T15:10:45.158Z,32.66
2018-08-09T15:13:14.012Z,32.66
2018-08-09T15:15:42.918Z,32.53
2018-08-09T15:18:11.903Z,32.41
2018-08-09T15:20:40.833Z,32.35
2018-08-09T15:23:09.750Z,32.33
2018-08-09T15:25:38.669Z,32.34
2018-08-09T15:28:07.926Z,32.40
2018-08-09T15:30:36.846Z,32.46
2018-08-09T15:33:05.960Z,32.46
2018-08-09T15:35:34.844Z,32.46
2018-08-09T15:38:03.741Z,32.43
2018-08-09T15:40:32.722Z,32.42
2018-08-09T15:43:01.612Z,32.37
2018-08-09T15:45:30.531Z,32.40
2018-08-09T15:48:00.027Z,32.34
2018-08-09T15:50:29.006Z,32.31
2018-08-09T15:52:57.986Z,32.31
2018-08-09T15:55:26.965Z,32.30
2018-08-09T15:57:56.144Z,32.18
2018-08-09T16:00:25.438Z,32.14
2018-08-09T16:02:54.651Z,32.14
2018-08-09T16:05:23.827Z,32.11
2018-08-09T16:07:52.931Z,31.92
2018-08-09T16:10:22.045Z,31.95
2018-08-09T16:12:51.036Z,31.96
2018-08-09T16:15:20.558Z,31.96
2018-08-09T16:17:50.222Z,31.97
2018-08-09T16:20:19.409Z,32.00
2018-08-09T16:22:48.680Z,31.98
2018-08-09T16:25:19.516Z,32.03
2018-08-09T16:27:49.309Z,31.99
2018-08-09T16:30:20.432Z,31.94
2018-08-09T16:32:49.721Z,31.95
2018-08-09T16:35:19.061Z,31.95
2018-08-09T16:37:48.495Z,31.91
2018-08-09T16:40:19.411Z,31.88
2018-08-09T16:42:49.218Z,31.85
2018-08-09T16:45:19.388Z,31.78
2018-08-09T16:47:49.095Z,31.71
2018-08-09T16:50:20.476Z,31.66
2018-08-09T16:52:50.973Z,31.63
2018-08-09T16:55:27.417Z,31.60
2018-08-09T16:57:56.548Z,31.57
2018-08-09T17:00:26.522Z,31.56
2018-08-09T17:02:56.097Z,31.47
2018-08-09T17:05:27.857Z,31.40
2018-08-09T17:07:57.391Z,31.35
2018-08-09T17:10:27.144Z,31.28
2018-08-09T17:12:56.256Z,31.18
2018-08-09T17:15:27.574Z,31.07
2018-08-09T17:17:57.341Z,30.97
2018-08-09T17:20:33.050Z,30.86
2018-08-09T17:23:03.425Z,30.75
2018-08-09T17:25:32.651Z,30.63
2018-08-09T17:28:02.128Z,30.53
2018-08-09T17:30:31.247Z,30.37
2018-08-09T17:33:00.440Z,30.22
2018-08-09T17:35:29.693Z,30.09
2018-08-09T17:37:58.715Z,29.95
2018-08-09T17:40:31.338Z,29.91
2018-08-09T17:43:00.948Z,29.77
2018-08-09T17:45:33.816Z,29.53
2018-08-09T17:48:03.699Z,29.45
2018-08-09T17:50:32.829Z,29.36
2018-08-09T17:53:03.791Z,29.32
2018-08-09T17:55:33.368Z,29.21
2018-08-09T17:58:02.487Z,29.17
2018-08-09T18:00:33.558Z,29.12
2018-08-09T18:03:02.632Z,29.00
2018-08-09T18:05:31.528Z,28.96
2018-08-09T18:08:01.178Z,28.83
2018-08-09T18:10:32.540Z,28.74
2018-08-09T18:13:01.806Z,28.68
2018-08-09T18:15:31.594Z,28.61
2018-08-09T18:18:01.582Z,28.44
2018-08-09T18:20:32.335Z,28.45
2018-08-09T18:23:02.000Z,28.36
2018-08-09T18:25:31.052Z,28.34
2018-08-09T18:28:00.519Z,28.23
2018-08-09T18:30:29.684Z,28.18
2018-08-09T18:32:58.917Z,28.13
2018-08-09T18:35:28.432Z,28.12
2018-08-09T18:37:57.484Z,28.00
2018-08-09T18:40:28.218Z,27.93
2018-08-09T18:42:57.368Z,27.83
2018-08-09T18:45:34.211Z,27.79
2018-08-09T18:48:03.179Z,27.61
2018-08-09T18:50:32.460Z,27.45
2018-08-09T18:53:01.720Z,27.25
2018-08-09T18:55:30.779Z,27.23
2018-08-09T18:57:59.808Z,27.15
2018-08-09T19:00:30.623Z,27.14
2018-08-09T19:02:59.847Z,27.18
2018-08-09T19:05:29.133Z,27.09
2018-08-09T19:07:58.374Z,27.03
2018-08-09T19:10:29.176Z,26.99
2018-08-09T19:12:58.351Z,26.90
2018-08-09T19:15:27.515Z,26.84
2018-08-09T19:17:56.746Z,26.86
2018-08-09T19:20:34.436Z,26.83
2018-08-09T19:23:03.737Z,26.85
2018-08-09T19:25:32.778Z,26.74
2018-08-09T19:28:02.156Z,26.77
2018-08-09T19:30:32.342Z,26.69
2018-08-09T19:33:01.480Z,26.59
2018-08-09T19:35:30.531Z,26.58
2018-08-09T19:37:59.672Z,26.57
2018-08-09T19:40:33.548Z,26.50
2018-08-09T19:43:02.705Z,26.51
2018-08-09T19:45:31.874Z,26.50
2018-08-09T19:48:04.670Z,26.35
2018-08-09T19:50:37.013Z,26.32
2018-08-09T19:53:06.332Z,26.32
2018-08-09T19:55:35.374Z,26.27
2018-08-09T19:58:04.724Z,26.17
2018-08-09T20:00:37.518Z,26.15
2018-08-09T20:03:06.440Z,26.08
2018-08-09T20:05:35.657Z,26.05
2018-08-09T20:08:04.864Z,26.04
2018-08-09T20:10:34.064Z,25.96
2018-08-09T20:13:06.076Z,25.94
2018-08-09T20:15:39.159Z,26.00
2018-08-09T20:18:09.457Z,26.01
2018-08-09T20:20:38.559Z,25.97
2018-08-09T20:23:07.752Z,25.86
2018-08-09T20:25:36.838Z,25.67
2018-08-09T20:28:06.269Z,25.65
2018-08-09T20:30:35.419Z,25.58
2018-08-09T20:33:07.303Z,25.28
2018-08-09T20:35:36.533Z,25.35
2018-08-09T20:38:07.328Z,25.35
2018-08-09T20:40:37.970Z,25.36
2018-08-09T20:43:07.084Z,25.30
2018-08-09T20:45:39.735Z,25.29
2018-08-09T20:48:08.956Z,25.20
2018-08-09T20:50:38.967Z,25.16
2018-08-09T20:53:08.177Z,25.05
2018-08-09T20:55:37.352Z,24.93
2018-08-09T20:58:06.680Z,24.72
2018-08-09T21:00:36.975Z,24.73
2018-08-09T21:03:06.115Z,24.67
2018-08-09T21:05:37.708Z,24.68
2018-08-09T21:08:07.861Z,24.56
2018-08-09T21:10:37.441Z,24.55
2018-08-09T21:13:07.035Z,24.34
2018-08-09T21:15:36.163Z,24.27
2018-08-09T21:18:05.259Z,24.01
2018-08-09T21:20:34.642Z,23.97
2018-08-09T21:23:04.958Z,23.92
2018-08-09T21:25:34.379Z,23.85
2018-08-09T21:28:08.281Z,23.77
2018-08-09T21:30:47.659Z,23.75
2018-08-09T21:33:17.321Z,23.64
2018-08-09T21:35:46.618Z,23.55
2018-08-09T21:38:15.912Z,23.69
2018-08-09T21:40:52.081Z,23.77
2018-08-09T21:43:21.379Z,23.72
2018-08-09T21:45:50.585Z,23.81
2018-08-09T21:48:30.197Z,23.95
2018-08-09T21:50:59.403Z,23.98
2018-08-09T21:53:42.479Z,23.94
2018-08-09T21:56:11.535Z,23.79
2018-08-09T21:58:41.981Z,23.78
2018-08-09T22:01:13.471Z,23.81
2018-08-09T22:03:42.646Z,23.71
2018-08-09T22:06:16.639Z,23.69
2018-08-09T22:08:51.062Z,23.70
2018-08-09T22:11:25.304Z,23.69
2018-08-09T22:14:01.029Z,23.66
2018-08-09T22:16:35.656Z,23.52
2018-08-09T22:19:11.022Z,23.47
2018-08-09T22:21:45.078Z,23.50
2018-08-09T22:24:17.823Z,23.37
2018-08-09T22:26:49.268Z,23.33
2018-08-09T22:29:20.884Z,23.28
2018-08-09T22:31:50.267Z,23.32
2018-08-09T22:34:24.938Z,23.25
2018-08-09T22:36:54.109Z,23.26
2018-08-09T22:39:23.638Z,23.29
2018-08-09T22:41:52.717Z,23.29
2018-08-09T22:44:21.798Z,23.23
2018-08-09T22:46:50.803Z,23.17
2018-08-09T22:49:20.683Z,23.17
2018-08-09T22:51:49.678Z,23.16
2018-08-09T22:54:18.774Z,23.06
2018-08-09T22:56:48.380Z,23.15
2018-08-09T22:59:17.400Z,23.16
2018-08-09T23:01:46.540Z,23.04
2018-08-09T23:04:15.824Z,23.10
2018-08-09T23:06:48.561Z,22.90
2018-08-09T23:09:17.724Z,22.91
2018-08-09T23:11:47.604Z,22.95
2018-08-09T23:14:16.878Z,22.93
2018-08-09T23:16:46.193Z,22.83
2018-08-09T23:19:15.513Z,22.88
2018-08-09T23:21:44.585Z,22.87
2018-08-09T23:24:15.116Z,22.89
2018-08-09T23:26:47.642Z,22.78
2018-08-09T23:29:16.935Z,22.76
2018-08-09T23:31:46.064Z,22.72
2018-08-09T23:34:15.080Z,22.62
2018-08-09T23:36:47.824Z,22.58
2018-08-09T23:39:17.026Z,22.60
2018-08-09T23:41:46.060Z,22.71
2018-08-09T23:44:15.265Z,22.69
2018-08-09T23:46:44.205Z,22.80
2018-08-09T23:49:13.508Z,22.81
2018-08-09T23:51:42.937Z,22.77
2018-08-09T23:54:12.935Z,22.60
2018-08-09T23:56:43.242Z,22.59
2018-08-09T23:59:12.438Z,22.62
